sensor_id;sensor_type;location;lat;lon;timestamp;pressure;altitude;pressure_sealevel;temperature;humidity
34297;BME280;20564;42.902;25.336;2022-08-07T00:01:21;96912.88;;;19.85;82.35
34297;BME280;20564;42.902;25.336;2022-08-07T00:04:08;96903.44;;;19.83;82.52
34297;BME280;20564;42.902;25.336;2022-08-07T00:06:40;96903.63;;;19.81;82.29
34297;BME280;20564;42.902;25.336;2022-08-07T00:09:19;96908.59;;;19.71;83.19
34297;BME280;20564;42.902;25.336;2022-08-07T00:11:48;96914.75;;;19.71;82.84
34297;BME280;20564;42.902;25.336;2022-08-07T00:14:25;96912.50;;;19.75;82.99
34297;BME280;20564;42.902;25.336;2022-08-07T00:17:00;96903.63;;;19.61;83.45
34297;BME280;20564;42.902;25.336;2022-08-07T00:19:29;96908.72;;;19.56;83.60
34297;BME280;20564;42.902;25.336;2022-08-07T00:22:17;96907.72;;;19.50;84.03
34297;BME280;20564;42.902;25.336;2022-08-07T00:25:10;96915.31;;;19.54;83.45
34297;BME280;20564;42.902;25.336;2022-08-07T00:27:43;96912.41;;;19.48;83.95
34297;BME280;20564;42.902;25.336;2022-08-07T00:30:20;96914.06;;;19.43;84.75
34297;BME280;20564;42.902;25.336;2022-08-07T00:32:55;96914.88;;;19.43;84.49
34297;BME280;20564;42.902;25.336;2022-08-07T00:35:25;96913.03;;;19.50;84.03
34297;BME280;20564;42.902;25.336;2022-08-07T00:37:56;96910.56;;;19.42;84.20
34297;BME280;20564;42.902;25.336;2022-08-07T00:40:24;96908.06;;;19.34;84.67
34297;BME280;20564;42.902;25.336;2022-08-07T00:43:10;96912.59;;;19.34;84.74
34297;BME280;20564;42.902;25.336;2022-08-07T00:46:01;96912.19;;;19.30;84.87
34297;BME280;20564;42.902;25.336;2022-08-07T00:48:33;96915.69;;;19.31;84.72
34297;BME280;20564;42.902;25.336;2022-08-07T00:51:08;96910.53;;;19.29;84.68
34297;BME280;20564;42.902;25.336;2022-08-07T00:53:36;96903.16;;;19.24;84.74
34297;BME280;20564;42.902;25.336;2022-08-07T00:56:22;96912.16;;;19.17;85.64
34297;BME280;20564;42.902;25.336;2022-08-07T00:58:56;96910.09;;;19.19;85.40
34297;BME280;20564;42.902;25.336;2022-08-07T01:01:24;96916.69;;;19.16;85.10
34297;BME280;20564;42.902;25.336;2022-08-07T01:03:51;96915.00;;;19.15;85.36
34297;BME280;20564;42.902;25.336;2022-08-07T01:06:26;96909.88;;;19.07;85.83
34297;BME280;20564;42.902;25.336;2022-08-07T01:08:54;96911.31;;;19.10;86.03
34297;BME280;20564;42.902;25.336;2022-08-07T01:11:30;96913.56;;;19.06;86.05
34297;BME280;20564;42.902;25.336;2022-08-07T01:14:19;96917.84;;;19.00;86.16
34297;BME280;20564;42.902;25.336;2022-08-07T01:16:55;96914.19;;;19.01;86.26
34297;BME280;20564;42.902;25.336;2022-08-07T01:19:23;96919.50;;;19.01;85.68
34297;BME280;20564;42.902;25.336;2022-08-07T01:21:53;96917.41;;;18.97;86.28
34297;BME280;20564;42.902;25.336;2022-08-07T01:24:21;96921.75;;;18.98;85.87
34297;BME280;20564;42.902;25.336;2022-08-07T01:26:50;96916.00;;;18.94;86.50
34297;BME280;20564;42.902;25.336;2022-08-07T01:29:23;96915.34;;;18.92;86.63
34297;BME280;20564;42.902;25.336;2022-08-07T01:31:57;96916.00;;;18.94;86.26
34297;BME280;20564;42.902;25.336;2022-08-07T01:34:25;96920.47;;;18.94;86.36
34297;BME280;20564;42.902;25.336;2022-08-07T01:36:57;96918.66;;;18.94;86.53
34297;BME280;20564;42.902;25.336;2022-08-07T01:39:24;96922.31;;;18.93;86.63
34297;BME280;20564;42.902;25.336;2022-08-07T01:42:05;96919.88;;;18.92;86.73
34297;BME280;20564;42.902;25.336;2022-08-07T01:44:52;96916.97;;;18.80;87.76
34297;BME280;20564;42.902;25.336;2022-08-07T01:47:20;96925.53;;;18.75;87.64
34297;BME280;20564;42.902;25.336;2022-08-07T01:50:08;96921.44;;;18.73;87.52
34297;BME280;20564;42.902;25.336;2022-08-07T01:52:38;96927.59;;;18.73;87.90
34297;BME280;20564;42.902;25.336;2022-08-07T01:55:15;96916.47;;;18.70;87.70
34297;BME280;20564;42.902;25.336;2022-08-07T01:57:48;96921.44;;;18.73;87.25
34297;BME280;20564;42.902;25.336;2022-08-07T02:00:34;96928.16;;;18.69;87.61
34297;BME280;20564;42.902;25.336;2022-08-07T02:03:18;96938.19;;;18.67;87.12
34297;BME280;20564;42.902;25.336;2022-08-07T02:06:09;96932.00;;;18.60;87.78
34297;BME280;20564;42.902;25.336;2022-08-07T02:08:57;96938.34;;;18.59;88.47
34297;BME280;20564;42.902;25.336;2022-08-07T02:11:25;96932.81;;;18.60;88.03
34297;BME280;20564;42.902;25.336;2022-08-07T02:14:14;96937.31;;;18.60;88.52
34297;BME280;20564;42.902;25.336;2022-08-07T02:17:03;96928.72;;;18.58;87.82
34297;BME280;20564;42.902;25.336;2022-08-07T02:19:33;96924.16;;;18.51;88.64
34297;BME280;20564;42.902;25.336;2022-08-07T02:22:21;96931.94;;;18.53;88.54
34297;BME280;20564;42.902;25.336;2022-08-07T02:24:53;96927.44;;;18.53;88.54
34297;BME280;20564;42.902;25.336;2022-08-07T02:27:23;96931.13;;;18.52;88.57
34297;BME280;20564;42.902;25.336;2022-08-07T02:29:52;96930.75;;;18.55;88.84
34297;BME280;20564;42.902;25.336;2022-08-07T02:32:21;96935.69;;;18.59;88.40
34297;BME280;20564;42.902;25.336;2022-08-07T02:34:56;96922.97;;;18.61;89.21
34297;BME280;20564;42.902;25.336;2022-08-07T02:37:27;96930.34;;;18.59;88.89
34297;BME280;20564;42.902;25.336;2022-08-07T02:40:03;96928.06;;;18.55;90.41
34297;BME280;20564;42.902;25.336;2022-08-07T02:42:51;96927.00;;;18.50;89.49
34297;BME280;20564;42.902;25.336;2022-08-07T02:45:24;96932.16;;;18.51;89.80
34297;BME280;20564;42.902;25.336;2022-08-07T02:48:12;96930.34;;;18.59;89.29
34297;BME280;20564;42.902;25.336;2022-08-07T02:50:43;96927.53;;;18.67;89.30
34297;BME280;20564;42.902;25.336;2022-08-07T02:53:23;96934.78;;;18.73;89.92
34297;BME280;20564;42.902;25.336;2022-08-07T02:55:54;96923.47;;;18.71;89.04
34297;BME280;20564;42.902;25.336;2022-08-07T02:58:32;96932.28;;;18.71;89.84
34297;BME280;20564;42.902;25.336;2022-08-07T03:01:02;96929.16;;;18.68;89.95
34297;BME280;20564;42.902;25.336;2022-08-07T03:03:33;96933.28;;;18.70;89.48
34297;BME280;20564;42.902;25.336;2022-08-07T03:06:17;96932.09;;;18.73;89.87
34297;BME280;20564;42.902;25.336;2022-08-07T03:09:01;96935.59;;;18.73;89.46
34297;BME280;20564;42.902;25.336;2022-08-07T03:11:29;96939.47;;;18.71;90.15
34297;BME280;20564;42.902;25.336;2022-08-07T03:14:00;96942.38;;;18.76;89.63
34297;BME280;20564;42.902;25.336;2022-08-07T03:16:32;96945.69;;;18.85;89.52
34297;BME280;20564;42.902;25.336;2022-08-07T03:19:00;96940.41;;;18.91;90.37
34297;BME280;20564;42.902;25.336;2022-08-07T03:21:30;96944.91;;;18.91;89.30
34297;BME280;20564;42.902;25.336;2022-08-07T03:23:59;96944.31;;;18.95;90.38
34297;BME280;20564;42.902;25.336;2022-08-07T03:26:47;96947.97;;;18.88;90.10
34297;BME280;20564;42.902;25.336;2022-08-07T03:29:31;96952.31;;;18.95;89.83
34297;BME280;20564;42.902;25.336;2022-08-07T03:32:06;96947.75;;;18.89;90.04
34297;BME280;20564;42.902;25.336;2022-08-07T03:34:39;96952.31;;;18.95;89.66
34297;BME280;20564;42.902;25.336;2022-08-07T03:37:29;96947.81;;;19.02;89.63
34297;BME280;20564;42.902;25.336;2022-08-07T03:39:58;96957.28;;;19.05;90.68
34297;BME280;20564;42.902;25.336;2022-08-07T03:42:42;96956.03;;;19.08;90.26
34297;BME280;20564;42.902;25.336;2022-08-07T03:45:10;96953.97;;;19.03;90.25
34297;BME280;20564;42.902;25.336;2022-08-07T03:47:57;96951.53;;;19.08;89.38
34297;BME280;20564;42.902;25.336;2022-08-07T03:50:24;96950.31;;;19.11;89.96
34297;BME280;20564;42.902;25.336;2022-08-07T03:52:57;96955.84;;;19.16;89.15
34297;BME280;20564;42.902;25.336;2022-08-07T03:55:27;96953.19;;;19.16;89.75
34297;BME280;20564;42.902;25.336;2022-08-07T03:58:16;96951.94;;;19.12;90.02
34297;BME280;20564;42.902;25.336;2022-08-07T04:01:05;96958.97;;;19.26;90.88
34297;BME280;20564;42.902;25.336;2022-08-07T04:03:37;96968.81;;;19.25;89.98
34297;BME280;20564;42.902;25.336;2022-08-07T04:06:21;96963.03;;;19.15;89.85
34297;BME280;20564;42.902;25.336;2022-08-07T04:09:04;96960.63;;;19.20;91.56
34297;BME280;20564;42.902;25.336;2022-08-07T04:11:34;96966.34;;;19.17;91.09
34297;BME280;20564;42.902;25.336;2022-08-07T04:14:23;96967.81;;;19.20;90.93
34297;BME280;20564;42.902;25.336;2022-08-07T04:20:18;96978.47;;;19.26;91.54
34297;BME280;20564;42.902;25.336;2022-08-07T04:22:54;96974.34;;;19.17;91.94
34297;BME280;20564;42.902;25.336;2022-08-07T04:25:28;96979.53;;;19.32;91.72
34297;BME280;20564;42.902;25.336;2022-08-07T04:28:09;96972.97;;;19.41;92.91
34297;BME280;20564;42.902;25.336;2022-08-07T04:30:45;96980.59;;;19.51;90.39
34297;BME280;20564;42.902;25.336;2022-08-07T04:33:24;96987.44;;;19.67;91.74
34297;BME280;20564;42.902;25.336;2022-08-07T04:35:53;96990.34;;;19.72;91.57
34297;BME280;20564;42.902;25.336;2022-08-07T04:38:24;96984.19;;;19.85;90.03
34297;BME280;20564;42.902;25.336;2022-08-07T04:40:55;96991.59;;;19.96;89.08
34297;BME280;20564;42.902;25.336;2022-08-07T04:43:36;96991.63;;;20.16;89.57
34297;BME280;20564;42.902;25.336;2022-08-07T04:46:44;96991.41;;;20.57;88.87
34297;BME280;20564;42.902;25.336;2022-08-07T04:49:53;96979.81;;;20.83;86.03
34297;BME280;20564;42.902;25.336;2022-08-07T04:52:37;96991.47;;;21.02;85.61
34297;BME280;20564;42.902;25.336;2022-08-07T04:58:57;96991.25;;;21.62;82.27
34297;BME280;20564;42.902;25.336;2022-08-07T05:05:25;96990.72;;;22.42;77.69
34297;BME280;20564;42.902;25.336;2022-08-07T05:08:25;96994.41;;;22.84;76.94
34297;BME280;20564;42.902;25.336;2022-08-07T05:11:18;96992.72;;;23.26;75.05
34297;BME280;20564;42.902;25.336;2022-08-07T05:13:58;96993.22;;;23.65;74.04
34297;BME280;20564;42.902;25.336;2022-08-07T05:16:47;97002.59;;;23.93;70.80
34297;BME280;20564;42.902;25.336;2022-08-07T05:19:20;96998.06;;;24.05;70.35
34297;BME280;20564;42.902;25.336;2022-08-07T05:24:14;96988.56;;;24.56;67.58
34297;BME280;20564;42.902;25.336;2022-08-07T05:26:53;96999.34;;;24.80;67.07
34297;BME280;20564;42.902;25.336;2022-08-07T05:29:36;96997.41;;;25.03;68.49
34297;BME280;20564;42.902;25.336;2022-08-07T05:32:19;96995.41;;;25.22;66.82
34297;BME280;20564;42.902;25.336;2022-08-07T05:34:55;96987.13;;;25.53;62.25
34297;BME280;20564;42.902;25.336;2022-08-07T05:37:33;96996.06;;;25.70;61.99
34297;BME280;20564;42.902;25.336;2022-08-07T05:40:07;96982.81;;;25.80;62.00
34297;BME280;20564;42.902;25.336;2022-08-07T05:42:46;96989.31;;;26.13;61.77
34297;BME280;20564;42.902;25.336;2022-08-07T05:45:24;96998.97;;;26.42;59.43
34297;BME280;20564;42.902;25.336;2022-08-07T05:48:14;96997.75;;;26.67;59.25
34297;BME280;20564;42.902;25.336;2022-08-07T05:50:52;96998.47;;;26.79;58.05
34297;BME280;20564;42.902;25.336;2022-08-07T05:53:24;96998.75;;;27.00;58.58
34297;BME280;20564;42.902;25.336;2022-08-07T05:56:28;96998.09;;;27.31;57.59
34297;BME280;20564;42.902;25.336;2022-08-07T05:59:02;97006.00;;;27.60;55.87
34297;BME280;20564;42.902;25.336;2022-08-07T06:01:44;96992.91;;;27.74;55.06
34297;BME280;20564;42.902;25.336;2022-08-07T06:04:18;97002.38;;;27.98;54.75
34297;BME280;20564;42.902;25.336;2022-08-07T06:06:57;97005.56;;;28.22;54.26
34297;BME280;20564;42.902;25.336;2022-08-07T06:09:31;97004.75;;;28.49;53.13
34297;BME280;20564;42.902;25.336;2022-08-07T06:12:21;97008.88;;;28.62;51.90
34297;BME280;20564;42.902;25.336;2022-08-07T06:14:57;97013.34;;;28.78;52.77
34297;BME280;20564;42.902;25.336;2022-08-07T06:17:32;97004.78;;;28.96;51.65
34297;BME280;20564;42.902;25.336;2022-08-07T06:20:04;97004.44;;;29.30;50.30
34297;BME280;20564;42.902;25.336;2022-08-07T06:22:52;96994.22;;;29.58;49.98
34297;BME280;20564;42.902;25.336;2022-08-07T06:25:40;96987.53;;;29.91;49.04
34297;BME280;20564;42.902;25.336;2022-08-07T06:28:23;96997.63;;;30.16;48.50
34297;BME280;20564;42.902;25.336;2022-08-07T06:30:54;97001.47;;;30.40;47.70
34297;BME280;20564;42.902;25.336;2022-08-07T06:33:24;96999.81;;;30.60;46.89
34297;BME280;20564;42.902;25.336;2022-08-07T06:35:55;97000.06;;;30.73;47.36
34297;BME280;20564;42.902;25.336;2022-08-07T06:38:42;97001.72;;;30.74;46.44
34297;BME280;20564;42.902;25.336;2022-08-07T06:41:44;96999.50;;;30.97;46.29
34297;BME280;20564;42.902;25.336;2022-08-07T06:44:29;97008.47;;;31.03;45.29
34297;BME280;20564;42.902;25.336;2022-08-07T06:47:03;96998.91;;;31.20;46.08
34297;BME280;20564;42.902;25.336;2022-08-07T06:49:47;96998.53;;;31.48;45.62
34297;BME280;20564;42.902;25.336;2022-08-07T06:52:35;96993.31;;;31.61;45.04
34297;BME280;20564;42.902;25.336;2022-08-07T06:55:26;97000.69;;;31.56;44.22
34297;BME280;20564;42.902;25.336;2022-08-07T06:58:17;97002.19;;;31.77;44.17
34297;BME280;20564;42.902;25.336;2022-08-07T07:00:53;97004.06;;;31.87;43.76
34297;BME280;20564;42.902;25.336;2022-08-07T07:03:38;96998.94;;;31.75;43.31
34297;BME280;20564;42.902;25.336;2022-08-07T07:06:31;97006.94;;;31.51;43.20
34297;BME280;20564;42.902;25.336;2022-08-07T07:09:25;97003.97;;;31.48;44.13
34297;BME280;20564;42.902;25.336;2022-08-07T07:21:32;97024.47;;;31.19;44.00
34297;BME280;20564;42.902;25.336;2022-08-07T07:24:29;97009.28;;;30.93;44.58
34297;BME280;20564;42.902;25.336;2022-08-07T07:27:02;97013.38;;;30.95;43.75
34297;BME280;20564;42.902;25.336;2022-08-07T07:29:39;97023.44;;;30.34;43.52
34297;BME280;20564;42.902;25.336;2022-08-07T07:32:35;97024.25;;;30.24;44.42
34297;BME280;20564;42.902;25.336;2022-08-07T07:35:12;97022.34;;;30.14;44.78
34297;BME280;20564;42.902;25.336;2022-08-07T07:37:44;97010.69;;;30.39;44.71
34297;BME280;20564;42.902;25.336;2022-08-07T07:40:32;97022.63;;;30.33;44.55
34297;BME280;20564;42.902;25.336;2022-08-07T07:43:09;97014.47;;;30.74;43.18
34297;BME280;20564;42.902;25.336;2022-08-07T07:46:07;97020.06;;;31.29;41.35
34297;BME280;20564;42.902;25.336;2022-08-07T07:48:59;97018.69;;;31.46;39.46
34297;BME280;20564;42.902;25.336;2022-08-07T07:51:49;97013.03;;;31.17;38.71
34297;BME280;20564;42.902;25.336;2022-08-07T07:54:27;97014.94;;;31.22;39.14
34297;BME280;20564;42.902;25.336;2022-08-07T07:57:02;97001.53;;;31.46;38.31
34297;BME280;20564;42.902;25.336;2022-08-07T07:59:38;97005.19;;;31.76;37.64
34297;BME280;20564;42.902;25.336;2022-08-07T08:02:20;97003.63;;;31.64;38.41
34297;BME280;20564;42.902;25.336;2022-08-07T08:05:04;97011.19;;;31.73;37.92
34297;BME280;20564;42.902;25.336;2022-08-07T08:07:51;97007.47;;;31.63;37.38
34297;BME280;20564;42.902;25.336;2022-08-07T08:10:29;96997.88;;;31.71;37.54
34297;BME280;20564;42.902;25.336;2022-08-07T08:13:07;96995.59;;;31.93;36.00
34297;BME280;20564;42.902;25.336;2022-08-07T08:15:42;97016.78;;;32.02;36.15
34297;BME280;20564;42.902;25.336;2022-08-07T08:18:57;97013.31;;;31.91;36.30
34297;BME280;20564;42.902;25.336;2022-08-07T08:21:55;97006.50;;;31.83;37.13
34297;BME280;20564;42.902;25.336;2022-08-07T08:24:48;97006.59;;;31.68;36.21
34297;BME280;20564;42.902;25.336;2022-08-07T08:28:31;97012.56;;;31.70;36.14
34297;BME280;20564;42.902;25.336;2022-08-07T08:31:15;97005.38;;;31.40;36.67
34297;BME280;20564;42.902;25.336;2022-08-07T08:34:07;97013.81;;;31.33;37.79
34297;BME280;20564;42.902;25.336;2022-08-07T08:37:03;97011.16;;;31.08;37.30
34297;BME280;20564;42.902;25.336;2022-08-07T08:40:13;97014.19;;;30.70;38.00
34297;BME280;20564;42.902;25.336;2022-08-07T08:43:07;97005.72;;;31.08;38.63
34297;BME280;20564;42.902;25.336;2022-08-07T08:51:38;97006.88;;;32.55;35.69
34297;BME280;20564;42.902;25.336;2022-08-07T08:54:37;96997.50;;;32.90;34.99
34297;BME280;20564;42.902;25.336;2022-08-07T08:57:24;96981.91;;;33.25;35.43
34297;BME280;20564;42.902;25.336;2022-08-07T09:00:32;97007.13;;;33.60;33.75
34297;BME280;20564;42.902;25.336;2022-08-07T09:03:24;97001.22;;;33.53;32.91
34297;BME280;20564;42.902;25.336;2022-08-07T09:19:21;96975.53;;;34.16;32.59
34297;BME280;20564;42.902;25.336;2022-08-07T09:25:38;96973.84;;;34.01;32.95
34297;BME280;20564;42.902;25.336;2022-08-07T09:28:30;96967.66;;;33.71;33.87
34297;BME280;20564;42.902;25.336;2022-08-07T09:31:44;96976.44;;;33.25;32.91
34297;BME280;20564;42.902;25.336;2022-08-07T09:34:25;96970.75;;;32.69;35.02
34297;BME280;20564;42.902;25.336;2022-08-07T09:37:40;96976.28;;;32.29;35.70
34297;BME280;20564;42.902;25.336;2022-08-07T09:40:31;96982.78;;;32.33;35.41
34297;BME280;20564;42.902;25.336;2022-08-07T09:50:19;96980.22;;;30.88;39.55
34297;BME280;20564;42.902;25.336;2022-08-07T09:53:02;96987.34;;;30.43;41.40
34297;BME280;20564;42.902;25.336;2022-08-07T09:55:47;96999.56;;;30.20;41.35
34297;BME280;20564;42.902;25.336;2022-08-07T10:01:43;97002.41;;;29.63;43.23
34297;BME280;20564;42.902;25.336;2022-08-07T10:04:23;97004.91;;;29.17;43.99
34297;BME280;20564;42.902;25.336;2022-08-07T10:07:26;97010.38;;;28.79;47.88
34297;BME280;20564;42.902;25.336;2022-08-07T10:10:47;97008.28;;;28.49;49.30
34297;BME280;20564;42.902;25.336;2022-08-07T10:16:34;97015.28;;;28.18;50.74
34297;BME280;20564;42.902;25.336;2022-08-07T10:19:33;97010.06;;;28.11;53.07
34297;BME280;20564;42.902;25.336;2022-08-07T10:31:37;97007.50;;;27.73;58.12
34297;BME280;20564;42.902;25.336;2022-08-07T10:34:39;97005.38;;;27.75;57.60
34297;BME280;20564;42.902;25.336;2022-08-07T10:41:32;96998.22;;;28.18;59.53
34297;BME280;20564;42.902;25.336;2022-08-07T10:44:15;97000.28;;;28.70;56.54
34297;BME280;20564;42.902;25.336;2022-08-07T10:49:47;97002.31;;;29.42;52.40
34297;BME280;20564;42.902;25.336;2022-08-07T10:52:52;96995.91;;;29.59;49.75
34297;BME280;20564;42.902;25.336;2022-08-07T10:55:58;96989.44;;;29.85;49.32
34297;BME280;20564;42.902;25.336;2022-08-07T10:59:00;96986.81;;;30.21;49.29
34297;BME280;20564;42.902;25.336;2022-08-07T11:02:00;96972.38;;;30.77;46.89
34297;BME280;20564;42.902;25.336;2022-08-07T11:10:53;96967.16;;;30.95;43.40
34297;BME280;20564;42.902;25.336;2022-08-07T11:13:38;96948.72;;;30.72;43.35
34297;BME280;20564;42.902;25.336;2022-08-07T11:16:35;96964.19;;;30.71;45.16
34297;BME280;20564;42.902;25.336;2022-08-07T11:19:33;96967.75;;;30.62;43.76
34297;BME280;20564;42.902;25.336;2022-08-07T11:22:17;96967.22;;;30.49;44.17
34297;BME280;20564;42.902;25.336;2022-08-07T11:25:24;96968.06;;;30.40;45.11
34297;BME280;20564;42.902;25.336;2022-08-07T11:28:07;96963.44;;;30.40;44.01
34297;BME280;20564;42.902;25.336;2022-08-07T11:34:24;96959.81;;;30.96;43.63
34297;BME280;20564;42.902;25.336;2022-08-07T11:39:53;96950.03;;;31.65;40.83
34297;BME280;20564;42.902;25.336;2022-08-07T11:42:53;96940.44;;;31.73;41.63
34297;BME280;20564;42.902;25.336;2022-08-07T11:57:50;96926.25;;;32.49;39.11
34297;BME280;20564;42.902;25.336;2022-08-07T12:06:53;96930.66;;;31.72;39.39
34297;BME280;20564;42.902;25.336;2022-08-07T12:09:42;96931.94;;;31.30;40.62
34297;BME280;20564;42.902;25.336;2022-08-07T12:15:02;96922.63;;;30.86;46.17
34297;BME280;20564;42.902;25.336;2022-08-07T12:17:51;96934.59;;;30.60;50.79
34297;BME280;20564;42.902;25.336;2022-08-07T12:20:37;96941.97;;;30.34;55.47
34297;BME280;20564;42.902;25.336;2022-08-07T12:23:34;96938.44;;;30.38;55.17
34297;BME280;20564;42.902;25.336;2022-08-07T12:27:00;96921.00;;;30.80;49.11
34297;BME280;20564;42.902;25.336;2022-08-07T12:29:47;96921.50;;;30.92;45.20
34297;BME280;20564;42.902;25.336;2022-08-07T12:35:22;96905.59;;;31.25;42.13
34297;BME280;20564;42.902;25.336;2022-08-07T12:37:55;96891.53;;;31.08;42.37
34297;BME280;20564;42.902;25.336;2022-08-07T12:40:41;96915.22;;;31.02;43.45
34297;BME280;20564;42.902;25.336;2022-08-07T12:43:16;96909.03;;;30.81;43.39
34297;BME280;20564;42.902;25.336;2022-08-07T12:55:31;96987.50;;;24.57;80.38
34297;BME280;20564;42.902;25.336;2022-08-07T12:58:22;96962.25;;;23.81;86.63
34297;BME280;20564;42.902;25.336;2022-08-07T13:01:27;96944.34;;;23.45;91.19
34297;BME280;20564;42.902;25.336;2022-08-07T13:10:45;96951.75;;;23.61;100.00
34297;BME280;20564;42.902;25.336;2022-08-07T13:13:55;96955.66;;;24.07;100.00
34297;BME280;20564;42.902;25.336;2022-08-07T13:16:54;96949.81;;;24.34;100.00
34297;BME280;20564;42.902;25.336;2022-08-07T13:22:51;96969.72;;;24.56;99.83
34297;BME280;20564;42.902;25.336;2022-08-07T13:26:00;96978.88;;;24.55;100.00
34297;BME280;20564;42.902;25.336;2022-08-07T13:28:32;96973.00;;;24.58;99.78
34297;BME280;20564;42.902;25.336;2022-08-07T13:31:04;96956.59;;;24.71;99.91
34297;BME280;20564;42.902;25.336;2022-08-07T13:33:50;96958.72;;;24.69;100.00
34297;BME280;20564;42.902;25.336;2022-08-07T13:36:50;96960.59;;;24.57;100.00
34297;BME280;20564;42.902;25.336;2022-08-07T13:39:32;96955.22;;;24.45;100.00
34297;BME280;20564;42.902;25.336;2022-08-07T13:42:25;96940.25;;;24.61;100.00
34297;BME280;20564;42.902;25.336;2022-08-07T13:44:53;96939.97;;;24.98;100.00
34297;BME280;20564;42.902;25.336;2022-08-07T13:47:50;96936.81;;;25.30;96.94
34297;BME280;20564;42.902;25.336;2022-08-07T13:50:41;96935.19;;;25.57;94.17
34297;BME280;20564;42.902;25.336;2022-08-07T13:53:32;96925.38;;;25.80;93.03
34297;BME280;20564;42.902;25.336;2022-08-07T13:56:28;96922.63;;;26.08;92.50
34297;BME280;20564;42.902;25.336;2022-08-07T13:59:20;96936.66;;;26.44;92.07
34297;BME280;20564;42.902;25.336;2022-08-07T14:01:58;96918.06;;;26.64;89.06
34297;BME280;20564;42.902;25.336;2022-08-07T14:04:50;96929.78;;;26.92;88.64
34297;BME280;20564;42.902;25.336;2022-08-07T14:07:23;96926.34;;;27.19;87.25
34297;BME280;20564;42.902;25.336;2022-08-07T14:09:59;96925.25;;;27.41;88.89
34297;BME280;20564;42.902;25.336;2022-08-07T14:12:48;96935.50;;;27.67;79.32
34297;BME280;20564;42.902;25.336;2022-08-07T14:15:37;96932.28;;;27.70;77.76
34297;BME280;20564;42.902;25.336;2022-08-07T14:18:18;96934.03;;;27.54;78.16
34297;BME280;20564;42.902;25.336;2022-08-07T14:21:06;96929.84;;;27.41;81.33
34297;BME280;20564;42.902;25.336;2022-08-07T14:23:58;96924.75;;;27.23;79.44
34297;BME280;20564;42.902;25.336;2022-08-07T14:26:42;96919.59;;;26.99;76.38
34297;BME280;20564;42.902;25.336;2022-08-07T14:29:26;96923.56;;;26.69;75.94
34297;BME280;20564;42.902;25.336;2022-08-07T14:32:17;96917.28;;;26.47;76.83
34297;BME280;20564;42.902;25.336;2022-08-07T14:34:46;96916.38;;;26.25;77.71
34297;BME280;20564;42.902;25.336;2022-08-07T14:37:18;96907.84;;;26.11;77.29
34297;BME280;20564;42.902;25.336;2022-08-07T14:40:06;96919.00;;;26.19;78.95
34297;BME280;20564;42.902;25.336;2022-08-07T14:42:57;96911.31;;;26.45;78.45
34297;BME280;20564;42.902;25.336;2022-08-07T14:45:48;96915.06;;;26.83;74.82
34297;BME280;20564;42.902;25.336;2022-08-07T14:48:24;96922.75;;;27.13;72.07
34297;BME280;20564;42.902;25.336;2022-08-07T14:50:55;96940.53;;;27.31;74.81
34297;BME280;20564;42.902;25.336;2022-08-07T14:53:30;96979.31;;;27.41;72.87
34297;BME280;20564;42.902;25.336;2022-08-07T14:56:22;96998.44;;;26.96;74.29
34297;BME280;20564;42.902;25.336;2022-08-07T14:58:59;96984.28;;;26.50;76.61
34297;BME280;20564;42.902;25.336;2022-08-07T15:01:35;96974.13;;;26.24;83.54
34297;BME280;20564;42.902;25.336;2022-08-07T15:04:17;96965.28;;;25.94;85.79
34297;BME280;20564;42.902;25.336;2022-08-07T15:06:51;96960.31;;;25.74;86.59
34297;BME280;20564;42.902;25.336;2022-08-07T15:09:23;96960.59;;;25.61;89.60
34297;BME280;20564;42.902;25.336;2022-08-07T15:12:21;96962.53;;;24.97;94.86
34297;BME280;20564;42.902;25.336;2022-08-07T15:15:12;96959.06;;;24.73;95.85
34297;BME280;20564;42.902;25.336;2022-08-07T15:17:54;96948.53;;;24.71;94.90
34297;BME280;20564;42.902;25.336;2022-08-07T15:20:27;96952.75;;;24.67;94.89
34297;BME280;20564;42.902;25.336;2022-08-07T15:23:27;96950.44;;;24.59;100.00
34297;BME280;20564;42.902;25.336;2022-08-07T15:26:19;96951.72;;;24.45;99.50
34297;BME280;20564;42.902;25.336;2022-08-07T15:28:55;96956.00;;;24.34;99.62
34297;BME280;20564;42.902;25.336;2022-08-07T15:31:47;96971.44;;;24.27;100.00
34297;BME280;20564;42.902;25.336;2022-08-07T15:34:43;96977.63;;;24.27;100.00
34297;BME280;20564;42.902;25.336;2022-08-07T15:37:33;96980.09;;;24.17;100.00
34297;BME280;20564;42.902;25.336;2022-08-07T15:40:22;96976.72;;;24.22;100.00
34297;BME280;20564;42.902;25.336;2022-08-07T15:43:20;96983.97;;;24.21;100.00
34297;BME280;20564;42.902;25.336;2022-08-07T15:46:21;96988.47;;;24.09;100.00
34297;BME280;20564;42.902;25.336;2022-08-07T15:49:15;96992.34;;;24.13;100.00
34297;BME280;20564;42.902;25.336;2022-08-07T15:51:44;96994.00;;;24.14;100.00
34297;BME280;20564;42.902;25.336;2022-08-07T15:54:32;97004.84;;;24.08;100.00
34297;BME280;20564;42.902;25.336;2022-08-07T15:57:09;97010.22;;;23.96;100.00
34297;BME280;20564;42.902;25.336;2022-08-07T15:59:58;97009.25;;;23.90;100.00
34297;BME280;20564;42.902;25.336;2022-08-07T16:02:41;97006.00;;;23.88;100.00
34297;BME280;20564;42.902;25.336;2022-08-07T16:05:15;97010.06;;;23.91;100.00
34297;BME280;20564;42.902;25.336;2022-08-07T16:07:49;97022.00;;;23.95;100.00
34297;BME280;20564;42.902;25.336;2022-08-07T16:10:41;97020.69;;;23.86;100.00
34297;BME280;20564;42.902;25.336;2022-08-07T16:17:00;97024.44;;;23.85;100.00
34297;BME280;20564;42.902;25.336;2022-08-07T16:22:46;97030.53;;;23.92;100.00
34297;BME280;20564;42.902;25.336;2022-08-07T16:34:48;97013.00;;;23.89;100.00
34297;BME280;20564;42.902;25.336;2022-08-07T16:37:50;97008.34;;;23.96;100.00
34297;BME280;20564;42.902;25.336;2022-08-07T16:44:00;97002.25;;;23.89;100.00